Penwortham, United Kingdom
Current Conditions -  °F | °C
As of 6:50 PM on Monday 22 Dec 2014 (Local Time) from EGNO Reporting Station
Scattered Clouds Scattered Clouds  
Wind Chill: 52°   Ceiling: Unl
Heat Index: 52°   Visibility: 5mi
Dew Point: 50°   Wind: 25mph
Humidity: 94%   Direction: 250°WSW
Pressure: 29.8"   Gusts: NA
Location:  53.73°N, 2.74°W
Report Text: EGNO 221850Z 25022KT 8000 SCT045 11/10 Q1009
Loading
Personal Weather Stations






























Interactive Weather Map New forecast layout! Learn more

10-Day Weather Forecast

Advertisements
Track Severe Weather on mobile